createdAt,value
2017-10-27T00:01:54.239Z,14.00
2017-10-27T00:04:25.406Z,14.00
2017-10-27T00:06:54.293Z,14.00
2017-10-27T00:09:23.163Z,14.00
2017-10-27T00:11:52.053Z,14.00
2017-10-27T00:14:22.250Z,13.90
2017-10-27T00:16:51.123Z,13.90
2017-10-27T00:19:20.004Z,13.90
2017-10-27T00:21:48.881Z,13.90
2017-10-27T00:24:17.755Z,13.90
2017-10-27T00:26:46.895Z,13.90
2017-10-27T00:29:15.783Z,13.90
2017-10-27T00:31:44.677Z,13.80
2017-10-27T00:34:13.566Z,13.80
2017-10-27T00:36:42.116Z,13.80
2017-10-27T00:39:11.023Z,13.70
2017-10-27T00:41:39.896Z,13.70
2017-10-27T00:44:08.743Z,13.70
2017-10-27T00:46:37.829Z,13.70
2017-10-27T00:49:06.693Z,13.70
2017-10-27T00:51:35.593Z,13.60
2017-10-27T00:54:04.478Z,13.60
2017-10-27T00:56:33.017Z,13.50
2017-10-27T00:59:01.230Z,13.50
2017-10-27T01:01:30.131Z,13.60
2017-10-27T01:03:59.022Z,13.60
2017-10-27T01:06:27.894Z,13.60
2017-10-27T01:08:56.771Z,13.60
2017-10-27T01:11:26.392Z,13.60
2017-10-27T01:13:55.290Z,13.50
2017-10-27T01:16:23.615Z,13.50
2017-10-27T01:18:52.490Z,13.50
2017-10-27T01:21:21.043Z,13.60
2017-10-27T01:23:49.263Z,13.60
2017-10-27T01:26:18.137Z,13.60
2017-10-27T01:28:46.758Z,13.60
2017-10-27T01:31:15.653Z,13.50
2017-10-27T01:33:44.615Z,13.40
2017-10-27T01:36:12.790Z,13.50
2017-10-27T01:38:41.322Z,13.40
2017-10-27T01:41:10.269Z,13.40
2017-10-27T01:43:39.158Z,13.40
2017-10-27T01:46:07.347Z,13.40
2017-10-27T01:48:35.555Z,13.40
2017-10-27T01:51:04.586Z,13.30
2017-10-27T01:53:32.787Z,13.30
2017-10-27T01:56:01.329Z,13.30
2017-10-27T01:58:30.371Z,13.20
2017-10-27T02:00:58.683Z,13.20
2017-10-27T02:03:28.384Z,13.20
2017-10-27T02:05:58.033Z,13.20
2017-10-27T02:08:26.269Z,13.20
2017-10-27T02:10:55.451Z,13.20
2017-10-27T02:13:23.980Z,13.10
2017-10-27T02:15:53.975Z,13.10
2017-10-27T02:18:22.171Z,13.10
2017-10-27T02:20:50.370Z,13.00
2017-10-27T02:23:18.899Z,13.00
2017-10-27T02:25:47.787Z,12.90
2017-10-27T02:28:17.566Z,12.90
2017-10-27T02:30:46.514Z,12.90
2017-10-27T02:33:15.055Z,12.80
2017-10-27T02:35:43.963Z,12.80
2017-10-27T02:38:12.575Z,12.80
2017-10-27T02:40:42.517Z,12.70
2017-10-27T02:43:11.437Z,12.60
2017-10-27T02:45:40.311Z,12.60
2017-10-27T02:48:09.938Z,12.50
2017-10-27T02:50:38.806Z,12.50
2017-10-27T02:53:07.726Z,12.60
2017-10-27T02:55:36.596Z,12.60
2017-10-27T02:58:05.472Z,12.50
2017-10-27T03:00:34.369Z,12.30
2017-10-27T03:03:03.318Z,12.10
2017-10-27T03:05:34.290Z,12.00
2017-10-27T03:08:03.136Z,11.90
2017-10-27T03:10:32.018Z,11.80
2017-10-27T03:13:00.872Z,11.70
2017-10-27T03:15:29.728Z,11.50
2017-10-27T03:17:58.623Z,11.40
2017-10-27T03:20:28.246Z,11.30
2017-10-27T03:22:57.861Z,11.20
2017-10-27T03:25:28.291Z,11.20
2017-10-27T03:27:58.356Z,11.10
2017-10-27T03:30:27.222Z,11.10
2017-10-27T03:32:56.070Z,11.10
2017-10-27T03:35:25.498Z,11.10
2017-10-27T03:37:55.135Z,11.00
2017-10-27T03:40:24.034Z,10.90
2017-10-27T03:42:52.959Z,10.90
2017-10-27T03:45:21.833Z,11.00
2017-10-27T03:47:51.243Z,11.00
2017-10-27T03:50:20.108Z,11.00
2017-10-27T03:52:48.961Z,10.90
2017-10-27T03:55:17.155Z,10.90
2017-10-27T03:57:46.106Z,10.80
2017-10-27T04:00:14.289Z,10.80
2017-10-27T04:02:43.138Z,10.80
2017-10-27T04:05:11.986Z,10.80
2017-10-27T04:07:40.539Z,10.90
2017-10-27T04:10:09.381Z,10.90
2017-10-27T04:12:38.220Z,10.90
2017-10-27T04:15:06.738Z,10.90
2017-10-27T04:17:35.594Z,11.00
2017-10-27T04:20:04.470Z,11.00
2017-10-27T04:22:33.344Z,11.00
2017-10-27T04:25:02.208Z,11.00
2017-10-27T04:27:31.055Z,11.00
2017-10-27T04:29:59.903Z,11.10
2017-10-27T04:32:28.447Z,11.10
2017-10-27T04:34:58.078Z,11.10
2017-10-27T04:37:26.600Z,11.00
2017-10-27T04:39:55.457Z,11.10
2017-10-27T04:42:25.394Z,11.10
2017-10-27T04:44:54.235Z,11.20
2017-10-27T04:47:23.632Z,11.20
2017-10-27T04:49:52.471Z,11.20
2017-10-27T04:52:21.306Z,11.30
2017-10-27T04:54:50.168Z,11.30
2017-10-27T04:57:19.251Z,11.20
2017-10-27T04:59:48.135Z,11.10
2017-10-27T05:02:16.988Z,11.10
2017-10-27T05:04:45.856Z,11.10
2017-10-27T05:07:14.709Z,11.10
2017-10-27T05:09:43.558Z,11.10
2017-10-27T05:12:13.183Z,11.10
2017-10-27T05:14:42.041Z,11.00
2017-10-27T05:17:16.312Z,11.00
2017-10-27T05:19:51.477Z,11.00
2017-10-27T05:22:25.824Z,11.10
2017-10-27T05:24:54.715Z,11.00
2017-10-27T05:27:24.036Z,11.00
2017-10-27T05:29:53.774Z,11.10
2017-10-27T05:32:23.613Z,11.10
2017-10-27T05:34:52.472Z,11.10
2017-10-27T05:37:21.365Z,11.10
2017-10-27T05:39:51.170Z,11.10
2017-10-27T05:42:21.036Z,11.10
2017-10-27T05:44:49.920Z,11.10
2017-10-27T05:47:18.811Z,11.10
2017-10-27T05:49:47.658Z,11.10
2017-10-27T05:52:16.550Z,11.10
2017-10-27T05:54:45.456Z,11.10
2017-10-27T05:57:14.320Z,11.10
2017-10-27T05:59:43.984Z,11.10
2017-10-27T06:02:13.470Z,11.10
2017-10-27T06:04:42.336Z,11.10
2017-10-27T06:07:11.984Z,11.10
2017-10-27T06:09:40.887Z,11.10
2017-10-27T06:12:09.772Z,11.20
2017-10-27T06:14:38.649Z,11.10
2017-10-27T06:17:07.516Z,11.20
2017-10-27T06:19:36.350Z,11.20
2017-10-27T06:22:04.972Z,11.20
2017-10-27T06:24:35.136Z,11.20
2017-10-27T06:27:06.047Z,11.20
2017-10-27T06:29:35.758Z,11.20
2017-10-27T06:32:26.822Z,11.20
2017-10-27T06:34:56.081Z,11.20
2017-10-27T06:37:25.060Z,11.20
2017-10-27T06:39:55.778Z,11.20
2017-10-27T06:42:24.798Z,11.20
2017-10-27T06:44:53.652Z,11.20
2017-10-27T06:47:22.504Z,11.20
2017-10-27T06:49:52.766Z,11.20
2017-10-27T06:52:21.670Z,11.20
2017-10-27T06:54:50.698Z,11.30
2017-10-27T06:57:19.566Z,11.30
2017-10-27T06:59:49.740Z,11.20
2017-10-27T07:02:18.611Z,11.20
2017-10-27T07:04:47.495Z,11.30
2017-10-27T07:07:16.376Z,11.30
2017-10-27T07:09:45.225Z,11.30
2017-10-27T07:12:14.126Z,11.30
2017-10-27T07:14:43.564Z,11.30
2017-10-27T07:17:12.409Z,11.30
2017-10-27T07:19:41.282Z,11.30
2017-10-27T07:22:10.150Z,11.30
2017-10-27T07:24:39.533Z,11.30
2017-10-27T07:27:08.836Z,11.40
2017-10-27T07:29:38.171Z,11.40
2017-10-27T07:32:06.359Z,11.30
2017-10-27T07:34:35.275Z,11.40
2017-10-27T07:37:03.834Z,11.40
2017-10-27T07:39:33.294Z,11.40
2017-10-27T07:42:02.675Z,11.40
2017-10-27T07:44:31.258Z,11.40
2017-10-27T07:46:59.842Z,11.40
2017-10-27T07:49:28.055Z,11.40
2017-10-27T07:51:59.703Z,11.40
2017-10-27T07:54:28.687Z,11.40
2017-10-27T07:56:57.652Z,11.40
2017-10-27T07:59:26.267Z,11.40
2017-10-27T08:01:55.225Z,11.30
2017-10-27T08:04:23.776Z,11.20
2017-10-27T08:06:52.055Z,11.20
2017-10-27T08:09:20.951Z,11.20
2017-10-27T08:11:49.987Z,11.20
2017-10-27T08:14:19.414Z,11.20
2017-10-27T08:16:49.927Z,11.20
2017-10-27T08:19:18.480Z,11.20
2017-10-27T08:21:47.030Z,11.20
2017-10-27T08:24:15.214Z,11.20
2017-10-27T08:26:45.908Z,11.20
2017-10-27T08:29:15.580Z,11.30
2017-10-27T08:31:45.302Z,11.30
2017-10-27T08:34:13.897Z,11.40
2017-10-27T08:36:42.124Z,11.50
2017-10-27T08:39:10.723Z,11.50
2017-10-27T08:41:40.190Z,11.50
2017-10-27T08:44:10.157Z,11.50
2017-10-27T08:46:39.083Z,11.60
2017-10-27T08:49:08.780Z,11.60
2017-10-27T08:51:37.357Z,11.70
2017-10-27T08:54:06.029Z,11.70
2017-10-27T08:56:34.333Z,11.50
2017-10-27T08:59:04.812Z,11.40
2017-10-27T09:01:33.028Z,11.30
2017-10-27T09:04:02.498Z,11.20
2017-10-27T09:06:31.764Z,11.30
2017-10-27T09:09:01.426Z,11.40
2017-10-27T09:11:30.765Z,11.40
2017-10-27T09:14:01.708Z,11.50
2017-10-27T09:16:32.307Z,11.50
2017-10-27T09:19:01.411Z,11.60
2017-10-27T09:21:38.640Z,11.60
2017-10-27T09:24:07.163Z,11.70
2017-10-27T09:26:35.804Z,11.80
2017-10-27T09:29:04.364Z,12.10
2017-10-27T09:31:33.768Z,12.20
2017-10-27T09:34:02.642Z,12.30
2017-10-27T09:36:31.225Z,12.30
2017-10-27T09:38:59.468Z,12.40
2017-10-27T09:41:29.870Z,12.40
2017-10-27T09:43:58.076Z,12.40
2017-10-27T09:46:33.958Z,12.40
2017-10-27T09:49:03.319Z,12.40
2017-10-27T09:51:31.911Z,12.50
2017-10-27T09:54:00.465Z,12.50
2017-10-27T09:56:29.035Z,12.50
2017-10-27T09:59:00.945Z,12.50
2017-10-27T10:01:29.668Z,12.50
2017-10-27T10:03:59.444Z,12.60
2017-10-27T10:06:28.132Z,12.60
2017-10-27T10:08:56.709Z,12.60
2017-10-27T10:11:25.254Z,12.70
2017-10-27T10:13:53.839Z,12.70
2017-10-27T10:19:19.890Z,12.70
2017-10-27T10:21:50.460Z,12.90
2017-10-27T10:24:19.374Z,12.80
2017-10-27T10:26:47.580Z,13.10
2017-10-27T10:29:18.444Z,13.30
2017-10-27T10:31:49.058Z,13.20
2017-10-27T10:34:17.615Z,13.20
2017-10-27T10:36:46.480Z,13.10
2017-10-27T10:39:15.627Z,13.10
2017-10-27T10:41:44.278Z,13.10
2017-10-27T10:44:13.172Z,13.00
2017-10-27T10:46:42.345Z,12.70
2017-10-27T10:49:11.692Z,12.30
2017-10-27T10:51:41.844Z,12.30
2017-10-27T10:54:11.727Z,12.30
2017-10-27T10:56:40.325Z,12.30
2017-10-27T10:59:09.662Z,12.30
2017-10-27T11:01:39.796Z,12.40
2017-10-27T11:04:08.014Z,12.40
2017-10-27T11:06:37.353Z,12.70
2017-10-27T11:09:05.871Z,12.70
2017-10-27T11:11:34.788Z,12.90
2017-10-27T11:14:04.195Z,13.20
2017-10-27T11:16:34.953Z,13.30
2017-10-27T11:19:04.367Z,13.30
2017-10-27T11:21:33.683Z,13.00
2017-10-27T11:24:02.271Z,13.00
2017-10-27T11:26:31.930Z,13.00
2017-10-27T11:29:00.131Z,12.90
2017-10-27T11:31:28.732Z,12.80
2017-10-27T11:33:57.691Z,12.70
2017-10-27T11:36:26.216Z,12.70
2017-10-27T11:38:55.351Z,12.60
2017-10-27T11:41:24.220Z,12.60
2017-10-27T11:43:52.429Z,12.50
2017-10-27T11:46:21.286Z,12.50
2017-10-27T11:48:50.124Z,12.40
2017-10-27T11:51:18.983Z,12.40
2017-10-27T11:53:47.843Z,12.40
2017-10-27T11:56:19.975Z,12.20
2017-10-27T11:58:48.836Z,12.20
2017-10-27T12:01:17.662Z,12.20
2017-10-27T12:03:46.494Z,12.20
2017-10-27T12:06:15.340Z,12.20
2017-10-27T12:08:44.270Z,12.20
2017-10-27T12:11:13.870Z,12.20
2017-10-27T12:13:42.402Z,12.20
2017-10-27T12:16:11.309Z,12.30
2017-10-27T12:18:41.982Z,12.30
2017-10-27T12:21:11.283Z,12.30
2017-10-27T12:23:40.918Z,12.30
2017-10-27T12:26:09.868Z,12.20
2017-10-27T12:28:39.166Z,12.20
2017-10-27T12:31:07.338Z,12.20
2017-10-27T12:33:35.506Z,12.10
2017-10-27T12:36:03.685Z,12.10
2017-10-27T12:38:31.866Z,12.10
2017-10-27T12:41:00.036Z,12.00
2017-10-27T12:43:28.224Z,12.00
2017-10-27T12:45:58.170Z,12.10
2017-10-27T12:48:26.363Z,12.10
2017-10-27T12:50:54.889Z,12.00
2017-10-27T12:53:24.498Z,12.10
2017-10-27T12:55:53.359Z,12.00
2017-10-27T12:58:22.308Z,12.10
2017-10-27T13:00:50.850Z,12.10
2017-10-27T13:03:19.044Z,12.20
2017-10-27T13:05:48.717Z,12.30
2017-10-27T13:08:17.612Z,12.30
2017-10-27T13:10:46.180Z,12.30
2017-10-27T13:13:16.096Z,12.30
2017-10-27T13:15:44.322Z,12.30
2017-10-27T13:18:13.280Z,12.30
2017-10-27T13:20:41.799Z,12.20
2017-10-27T13:23:11.100Z,12.20
2017-10-27T13:25:41.328Z,12.10
2017-10-27T13:28:10.280Z,12.10
2017-10-27T13:30:39.337Z,12.10
2017-10-27T13:33:07.534Z,12.10
2017-10-27T13:35:35.718Z,12.00
2017-10-27T13:38:04.239Z,11.90
2017-10-27T13:40:32.447Z,11.90
2017-10-27T13:43:00.632Z,12.00
2017-10-27T13:45:28.852Z,12.10
2017-10-27T13:47:58.586Z,12.30
2017-10-27T13:50:27.565Z,12.30
2017-10-27T13:52:56.112Z,12.30
2017-10-27T13:55:24.311Z,12.40
2017-10-27T13:57:52.834Z,12.40
2017-10-27T14:00:21.759Z,12.30
2017-10-27T14:02:51.285Z,12.30
2017-10-27T14:05:19.818Z,12.30
2017-10-27T14:07:49.117Z,12.50
2017-10-27T14:10:17.401Z,12.50
2017-10-27T14:12:45.903Z,12.60
2017-10-27T14:15:14.090Z,12.70
2017-10-27T14:17:42.940Z,12.80
2017-10-27T14:20:11.809Z,12.90
2017-10-27T14:22:41.719Z,12.90
2017-10-27T14:25:10.568Z,12.90
2017-10-27T14:27:39.463Z,12.80
2017-10-27T14:30:08.007Z,12.70
2017-10-27T14:36:09.025Z,12.60
2017-10-27T14:38:40.822Z,12.50
2017-10-27T14:41:11.286Z,12.40
2017-10-27T14:43:40.162Z,12.40
2017-10-27T14:46:09.901Z,12.70
2017-10-27T14:48:38.765Z,12.60
2017-10-27T14:51:08.417Z,12.30
2017-10-27T14:53:36.951Z,12.30
2017-10-27T14:56:06.594Z,12.10
2017-10-27T14:58:35.454Z,12.00
2017-10-27T15:01:14.592Z,12.00
2017-10-27T15:03:45.210Z,12.00
2017-10-27T15:06:17.025Z,11.90
2017-10-27T15:08:45.912Z,11.90
2017-10-27T15:11:14.815Z,11.90
2017-10-27T15:13:43.678Z,11.90
2017-10-27T15:16:12.566Z,11.90
2017-10-27T15:18:41.443Z,11.80
2017-10-27T15:21:10.372Z,11.90
2017-10-27T15:23:44.520Z,11.90
2017-10-27T15:28:49.416Z,11.90
2017-10-27T15:31:21.094Z,11.90
2017-10-27T15:36:23.781Z,11.90
2017-10-27T15:41:26.915Z,11.80
2017-10-27T15:43:55.782Z,11.80
2017-10-27T15:46:25.798Z,11.80
2017-10-27T15:48:56.120Z,11.80
2017-10-27T15:51:27.246Z,11.80
2017-10-27T15:53:57.175Z,11.80
2017-10-27T15:59:01.895Z,11.80
2017-10-27T16:01:32.550Z,11.70
2017-10-27T16:04:01.404Z,11.70
2017-10-27T16:06:31.215Z,11.70
2017-10-27T16:09:00.063Z,11.70
2017-10-27T16:11:28.877Z,11.70
2017-10-27T16:13:57.727Z,11.70
2017-10-27T16:16:26.574Z,11.70
2017-10-27T16:18:57.147Z,11.70
2017-10-27T16:21:26.012Z,11.70
2017-10-27T16:23:54.907Z,11.70
2017-10-27T16:26:26.155Z,11.70
2017-10-27T16:28:55.054Z,11.70
2017-10-27T16:31:23.941Z,11.70
2017-10-27T16:33:54.500Z,11.70
2017-10-27T16:36:23.370Z,11.70
2017-10-27T16:38:54.295Z,11.60
2017-10-27T16:41:26.576Z,11.60
2017-10-27T16:43:55.692Z,11.60
2017-10-27T16:46:24.919Z,11.60
2017-10-27T16:48:53.824Z,11.60
2017-10-27T16:51:22.686Z,11.60
2017-10-27T16:53:52.423Z,11.70
2017-10-27T16:56:22.077Z,11.60
2017-10-27T16:58:53.464Z,11.60
2017-10-27T17:01:23.719Z,11.60
2017-10-27T17:03:57.068Z,11.60
2017-10-27T17:09:21.590Z,11.60
2017-10-27T17:14:31.882Z,11.60
2017-10-27T17:17:03.004Z,11.60
2017-10-27T17:19:31.974Z,11.60
2017-10-27T17:22:01.600Z,11.60
2017-10-27T17:24:30.552Z,11.50
2017-10-27T17:26:59.093Z,11.60
2017-10-27T17:29:27.973Z,11.50
2017-10-27T17:31:57.851Z,11.50
2017-10-27T17:34:35.747Z,11.50
2017-10-27T17:37:05.928Z,11.40
2017-10-27T17:39:37.416Z,11.40
2017-10-27T17:42:06.288Z,11.40
2017-10-27T17:44:38.204Z,11.40
2017-10-27T17:47:06.391Z,11.40
2017-10-27T17:49:35.520Z,11.40
2017-10-27T17:52:04.419Z,11.40
2017-10-27T17:54:33.093Z,11.40
2017-10-27T17:57:01.956Z,11.40
2017-10-27T17:59:30.847Z,11.40
2017-10-27T18:02:00.603Z,11.40
2017-10-27T18:04:29.205Z,11.30
2017-10-27T18:06:57.750Z,11.30
2017-10-27T18:12:06.431Z,11.30
2017-10-27T18:14:36.248Z,11.30
2017-10-27T18:17:04.449Z,11.30
2017-10-27T18:19:33.311Z,11.20
2017-10-27T18:22:02.940Z,11.20
2017-10-27T18:24:31.808Z,11.20
2017-10-27T18:27:01.104Z,11.20
2017-10-27T18:29:29.956Z,11.10
2017-10-27T18:31:58.514Z,11.20
2017-10-27T18:34:27.387Z,11.10
2017-10-27T18:36:57.050Z,11.10
2017-10-27T18:39:25.926Z,11.00
2017-10-27T18:41:56.888Z,11.00
2017-10-27T18:44:25.896Z,11.00
2017-10-27T18:46:54.739Z,11.00
2017-10-27T18:49:23.584Z,11.10
2017-10-27T18:51:53.283Z,11.00
2017-10-27T18:54:22.927Z,11.00
2017-10-27T18:56:52.528Z,11.00
2017-10-27T18:59:22.854Z,11.00
2017-10-27T19:01:51.459Z,11.00
2017-10-27T19:04:20.339Z,11.20
2017-10-27T19:06:49.220Z,11.10
2017-10-27T19:09:18.920Z,11.00
2017-10-27T19:11:47.779Z,10.90
2017-10-27T19:14:16.663Z,10.90
2017-10-27T19:16:45.402Z,10.90
2017-10-27T19:19:15.027Z,10.90
2017-10-27T19:21:43.923Z,10.90
2017-10-27T19:24:12.758Z,10.90
2017-10-27T19:26:42.029Z,10.90
2017-10-27T19:29:12.075Z,10.90
2017-10-27T19:31:41.185Z,10.90
2017-10-27T19:34:10.111Z,10.90
2017-10-27T19:36:40.087Z,10.80
2017-10-27T19:39:08.967Z,10.80
2017-10-27T19:41:37.844Z,10.80
2017-10-27T19:44:06.692Z,10.80
2017-10-27T19:46:35.538Z,10.80
2017-10-27T19:49:04.064Z,10.80
2017-10-27T19:51:32.907Z,10.80
2017-10-27T19:54:01.799Z,10.70
2017-10-27T19:56:30.632Z,10.70
2017-10-27T19:58:59.484Z,10.70
2017-10-27T20:01:28.171Z,10.70
2017-10-27T20:03:56.863Z,10.70
2017-10-27T20:06:25.726Z,10.60
2017-10-27T20:08:54.414Z,10.60
2017-10-27T20:11:23.254Z,10.60
2017-10-27T20:13:52.119Z,10.60
2017-10-27T20:16:21.288Z,10.60
2017-10-27T20:18:50.184Z,10.60
2017-10-27T20:21:19.054Z,10.60
2017-10-27T20:23:48.316Z,10.60
2017-10-27T20:26:17.180Z,10.60
2017-10-27T20:28:46.015Z,10.50
2017-10-27T20:31:14.865Z,10.50
2017-10-27T20:33:43.731Z,10.60
2017-10-27T20:36:12.578Z,10.50
2017-10-27T20:38:41.422Z,10.50
2017-10-27T20:41:10.263Z,10.50
2017-10-27T20:43:39.103Z,10.50
2017-10-27T20:46:07.945Z,10.50
2017-10-27T20:48:37.581Z,10.50
2017-10-27T20:51:07.182Z,10.50
2017-10-27T20:53:36.858Z,10.50
2017-10-27T20:56:05.696Z,10.40
2017-10-27T20:58:34.566Z,10.50
2017-10-27T21:01:03.399Z,10.40
2017-10-27T21:03:32.257Z,10.50
2017-10-27T21:06:01.882Z,10.50
2017-10-27T21:08:30.774Z,10.50
2017-10-27T21:10:59.624Z,10.50
2017-10-27T21:13:28.486Z,10.50
2017-10-27T21:15:57.354Z,10.50
2017-10-27T21:18:26.220Z,10.50
2017-10-27T21:20:55.851Z,10.50
2017-10-27T21:23:24.705Z,10.40
2017-10-27T21:25:53.570Z,10.50
2017-10-27T21:28:22.420Z,10.40
2017-10-27T21:30:51.260Z,10.40
2017-10-27T21:33:20.104Z,10.40
2017-10-27T21:35:48.955Z,10.40
2017-10-27T21:38:17.819Z,10.40
2017-10-27T21:40:46.699Z,10.40
2017-10-27T21:43:15.569Z,10.40
2017-10-27T21:45:45.456Z,10.40
2017-10-27T21:48:13.995Z,10.40
2017-10-27T21:50:42.859Z,10.40
2017-10-27T21:53:11.722Z,10.30
2017-10-27T21:55:40.566Z,10.30
2017-10-27T21:58:09.421Z,10.30
2017-10-27T22:00:38.320Z,10.30
2017-10-27T22:03:07.155Z,10.30
2017-10-27T22:05:36.028Z,10.30
2017-10-27T22:08:04.877Z,10.30
2017-10-27T22:10:34.693Z,10.30
2017-10-27T22:13:04.523Z,10.30
2017-10-27T22:15:33.391Z,10.30
2017-10-27T22:18:03.004Z,10.30
2017-10-27T22:20:32.284Z,10.30
2017-10-27T22:23:01.151Z,10.30
2017-10-27T22:25:29.993Z,10.30
2017-10-27T22:27:59.599Z,10.30
2017-10-27T22:30:29.207Z,10.30
2017-10-27T22:32:58.807Z,10.30
2017-10-27T22:35:28.632Z,10.30
2017-10-27T22:37:58.266Z,10.30
2017-10-27T22:40:27.127Z,10.30
2017-10-27T22:42:55.999Z,10.30
2017-10-27T22:45:25.668Z,10.30
2017-10-27T22:47:55.135Z,10.30
2017-10-27T22:50:24.763Z,10.40
2017-10-27T22:52:53.632Z,10.30
2017-10-27T22:55:22.503Z,10.40
2017-10-27T22:57:51.363Z,10.30
2017-10-27T23:00:21.096Z,10.30
2017-10-27T23:02:49.959Z,10.30
2017-10-27T23:05:18.815Z,10.30
2017-10-27T23:07:53.033Z,10.30
2017-10-27T23:10:22.672Z,10.30
2017-10-27T23:12:52.475Z,10.30
2017-10-27T23:15:21.593Z,10.40
2017-10-27T23:17:50.467Z,10.40
2017-10-27T23:20:19.384Z,10.40
2017-10-27T23:22:48.236Z,10.40
2017-10-27T23:25:17.134Z,10.40
2017-10-27T23:27:46.647Z,10.40
2017-10-27T23:30:15.534Z,10.40
2017-10-27T23:32:44.415Z,10.40
2017-10-27T23:35:13.284Z,10.40
2017-10-27T23:37:42.909Z,10.40
2017-10-27T23:40:11.751Z,10.40
2017-10-27T23:42:40.633Z,10.40
2017-10-27T23:45:09.484Z,10.40
2017-10-27T23:47:38.340Z,10.40
2017-10-27T23:50:07.179Z,10.40
2017-10-27T23:52:36.023Z,10.40
2017-10-27T23:55:04.632Z,10.40
2017-10-27T23:57:33.496Z,10.40
